createdAt,value
2022-08-16T00:01:24.447Z,12.65
2022-08-16T00:03:53.567Z,13.20
2022-08-16T00:06:22.376Z,12.25
2022-08-16T00:08:50.510Z,12.25
2022-08-16T00:11:20.900Z,12.13
2022-08-16T00:13:53.699Z,12.38
2022-08-16T00:17:00.848Z,13.23
2022-08-16T00:19:22.876Z,11.90
2022-08-16T00:21:53.144Z,13.00
2022-08-16T00:24:32.409Z,11.10
2022-08-16T00:27:02.542Z,12.65
2022-08-16T00:29:30.379Z,12.48
2022-08-16T00:32:05.390Z,12.82
2022-08-16T00:34:43.391Z,12.02
2022-08-16T00:37:24.382Z,13.25
2022-08-16T00:39:57.566Z,12.07
2022-08-16T00:42:30.648Z,11.90
2022-08-16T00:45:35.591Z,12.45
2022-08-16T00:48:31.168Z,13.68
2022-08-16T00:50:55.638Z,12.38
2022-08-16T00:53:24.258Z,13.20
2022-08-16T00:55:59.024Z,13.30
2022-08-16T00:58:34.304Z,12.40
2022-08-16T01:01:08.561Z,13.02
2022-08-16T01:03:41.652Z,13.00
2022-08-16T01:06:40.538Z,12.63
2022-08-16T01:09:05.819Z,13.82
2022-08-16T01:11:53.704Z,13.18
2022-08-16T01:14:30.421Z,13.70
2022-08-16T01:16:59.231Z,13.88
2022-08-16T01:19:42.983Z,12.30
2022-08-16T01:22:56.196Z,13.15
2022-08-16T01:25:44.178Z,13.00
2022-08-16T01:28:19.930Z,13.70
2022-08-16T01:30:54.292Z,13.25
2022-08-16T01:33:22.438Z,13.23
2022-08-16T01:36:02.112Z,13.05
2022-08-16T01:38:49.254Z,13.50
2022-08-16T01:41:30.196Z,13.23
2022-08-16T01:44:00.673Z,13.65
2022-08-16T01:46:40.148Z,13.95
2022-08-16T01:49:15.002Z,12.25
2022-08-16T01:51:45.391Z,13.65
2022-08-16T01:54:13.135Z,12.73
2022-08-16T01:56:40.989Z,12.85
2022-08-16T01:59:15.469Z,12.55
2022-08-16T02:01:43.374Z,13.00
2022-08-16T02:04:48.247Z,11.95
2022-08-16T02:07:11.339Z,12.95
2022-08-16T02:09:40.844Z,12.82
2022-08-16T02:12:50.817Z,12.15
2022-08-16T02:14:57.544Z,12.32
2022-08-16T02:17:28.520Z,12.40
2022-08-16T02:19:58.471Z,12.35
2022-08-16T02:22:33.305Z,12.45
2022-08-16T02:25:10.295Z,12.43
2022-08-16T02:27:42.895Z,12.43
2022-08-16T02:30:37.504Z,12.02
2022-08-16T02:33:07.570Z,12.85
2022-08-16T02:35:54.029Z,14.55
2022-08-16T02:38:23.259Z,13.77
2022-08-16T02:40:51.467Z,13.27
2022-08-16T02:43:26.831Z,13.93
2022-08-16T02:45:57.763Z,14.43
2022-08-16T02:48:30.650Z,14.02
2022-08-16T02:51:06.072Z,13.52
2022-08-16T02:53:45.790Z,13.80
2022-08-16T02:56:16.134Z,13.15
2022-08-16T02:58:46.062Z,14.40
2022-08-16T03:01:24.134Z,14.80
2022-08-16T03:04:39.696Z,14.65
2022-08-16T03:06:51.505Z,14.20
2022-08-16T03:09:25.488Z,13.40
2022-08-16T03:11:57.238Z,14.55
2022-08-16T03:14:25.343Z,13.75
2022-08-16T03:16:59.746Z,14.43
2022-08-16T03:19:46.953Z,14.38
2022-08-16T03:22:19.390Z,13.75
2022-08-16T03:24:57.928Z,13.18
2022-08-16T03:27:31.368Z,13.68
2022-08-16T03:30:22.518Z,13.55
2022-08-16T03:32:51.565Z,14.57
2022-08-16T03:35:22.989Z,13.57
2022-08-16T03:38:02.354Z,14.18
2022-08-16T03:40:34.412Z,13.55
2022-08-16T03:45:55.487Z,13.30
2022-08-16T03:48:36.265Z,13.80
2022-08-16T03:51:08.576Z,13.60
2022-08-16T03:53:37.702Z,13.13
2022-08-16T03:56:07.906Z,13.85
2022-08-16T03:58:36.874Z,13.60
2022-08-16T04:01:05.682Z,12.98
2022-08-16T04:03:34.048Z,12.77
2022-08-16T04:06:03.591Z,13.15
2022-08-16T04:08:31.314Z,12.80
2022-08-16T04:11:03.660Z,13.05
2022-08-16T04:14:00.193Z,13.15
2022-08-16T04:16:26.369Z,12.95
2022-08-16T04:19:01.959Z,14.40
2022-08-16T04:21:35.199Z,13.65
2022-08-16T04:24:03.131Z,14.60
2022-08-16T04:26:32.339Z,13.27
2022-08-16T04:29:16.729Z,13.23
2022-08-16T04:31:55.689Z,13.95
2022-08-16T04:34:27.521Z,13.52
2022-08-16T04:36:56.628Z,14.00
2022-08-16T04:39:24.529Z,14.43
2022-08-16T04:42:11.202Z,13.00
2022-08-16T04:44:54.042Z,13.23
2022-08-16T04:47:31.637Z,13.80
2022-08-16T04:50:02.031Z,13.05
2022-08-16T04:52:33.329Z,13.02
2022-08-16T04:55:09.648Z,12.07
2022-08-16T04:57:39.219Z,13.30
2022-08-16T05:00:30.266Z,13.13
2022-08-16T05:03:01.290Z,13.32
2022-08-16T05:05:30.667Z,11.98
2022-08-16T05:08:00.811Z,12.00
2022-08-16T05:10:47.772Z,12.73
2022-08-16T05:13:17.532Z,11.68
2022-08-16T05:15:45.562Z,12.63
2022-08-16T05:18:18.289Z,12.40
2022-08-16T05:21:01.321Z,12.25
2022-08-16T05:23:31.705Z,12.98
2022-08-16T05:26:00.050Z,12.35
2022-08-16T05:28:37.467Z,12.27
2022-08-16T05:31:06.792Z,12.00
2022-08-16T05:33:34.076Z,11.68
2022-08-16T05:36:03.899Z,13.10
2022-08-16T05:38:39.310Z,12.05
2022-08-16T05:41:09.338Z,11.10
2022-08-16T05:43:42.889Z,11.57
2022-08-16T05:46:28.593Z,12.60
2022-08-16T05:49:05.713Z,13.63
2022-08-16T05:51:39.031Z,12.45
2022-08-16T05:54:14.458Z,12.48
2022-08-16T05:56:43.324Z,12.43
2022-08-16T05:59:10.991Z,12.25
2022-08-16T06:01:39.314Z,11.60
2022-08-16T06:04:13.098Z,12.00
2022-08-16T06:06:43.494Z,12.98
2022-08-16T06:09:25.928Z,11.98
2022-08-16T06:12:12.612Z,12.50
2022-08-16T06:14:53.523Z,12.70
2022-08-16T06:17:23.334Z,11.15
2022-08-16T06:19:51.221Z,12.45
2022-08-16T06:22:37.331Z,12.82
2022-08-16T06:25:06.099Z,12.52
2022-08-16T06:27:39.532Z,11.80
2022-08-16T06:30:12.347Z,11.73
2022-08-16T06:32:48.507Z,12.23
2022-08-16T06:35:15.850Z,10.85
2022-08-16T06:37:47.470Z,11.23
2022-08-16T06:40:18.569Z,10.63
2022-08-16T06:42:47.922Z,11.95
2022-08-16T06:45:15.882Z,10.77
2022-08-16T06:47:53.144Z,10.43
2022-08-16T06:50:29.362Z,10.68
2022-08-16T06:53:00.759Z,10.35
2022-08-16T06:55:35.066Z,10.80
2022-08-16T06:58:08.643Z,10.88
2022-08-16T07:00:48.998Z,11.65
2022-08-16T07:03:28.043Z,11.40
2022-08-16T07:05:57.048Z,10.60
2022-08-16T07:08:27.905Z,11.00
2022-08-16T07:10:56.645Z,11.15
2022-08-16T07:13:57.788Z,11.40
2022-08-16T07:16:20.564Z,10.02
2022-08-16T07:18:58.165Z,10.05
2022-08-16T07:21:45.810Z,9.90
2022-08-16T07:24:30.564Z,10.07
2022-08-16T07:27:00.573Z,9.93
2022-08-16T07:29:31.789Z,9.93
2022-08-16T07:32:00.520Z,10.00
2022-08-16T07:34:34.974Z,9.10
2022-08-16T07:37:09.833Z,8.98
2022-08-16T07:39:43.246Z,9.18
2022-08-16T07:42:20.394Z,8.30
2022-08-16T07:44:59.969Z,8.23
2022-08-16T07:47:31.692Z,8.60
2022-08-16T07:50:07.347Z,9.00
2022-08-16T07:52:35.092Z,8.15
2022-08-16T07:55:08.112Z,8.55
2022-08-16T07:57:44.259Z,8.50
2022-08-16T08:00:25.261Z,8.52
2022-08-16T08:02:55.574Z,9.45
2022-08-16T08:05:35.620Z,7.60
2022-08-16T08:08:11.944Z,8.35
2022-08-16T08:10:52.312Z,8.15
2022-08-16T08:13:19.336Z,8.23
2022-08-16T08:16:06.848Z,7.38
2022-08-16T08:18:49.777Z,8.55
2022-08-16T08:21:27.309Z,7.85
2022-08-16T08:23:56.493Z,8.43
2022-08-16T08:26:25.294Z,8.93
2022-08-16T08:28:52.715Z,7.93
2022-08-16T08:31:20.322Z,7.78
2022-08-16T08:33:51.731Z,8.60
2022-08-16T08:36:33.225Z,7.82
2022-08-16T08:39:01.301Z,8.77
2022-08-16T08:41:29.291Z,8.40
2022-08-16T08:43:58.550Z,8.05
2022-08-16T08:46:26.904Z,7.32
2022-08-16T08:48:59.462Z,7.50
2022-08-16T08:51:35.900Z,8.52
2022-08-16T08:54:09.189Z,8.10
2022-08-16T08:56:45.360Z,8.68
2022-08-16T08:59:16.474Z,8.90
2022-08-16T09:01:56.544Z,8.90
2022-08-16T09:04:27.135Z,8.95
2022-08-16T09:06:55.187Z,8.98
2022-08-16T09:09:23.629Z,7.90
2022-08-16T09:12:04.076Z,8.63
2022-08-16T09:14:36.172Z,8.15
2022-08-16T09:17:12.034Z,7.90
2022-08-16T09:19:52.700Z,8.02
2022-08-16T09:22:28.253Z,7.90
2022-08-16T09:25:00.720Z,8.20
2022-08-16T09:27:56.896Z,8.55
2022-08-16T09:30:34.679Z,8.15
2022-08-16T09:33:07.586Z,7.63
2022-08-16T09:35:38.700Z,7.80
2022-08-16T09:38:07.055Z,7.80
2022-08-16T09:40:41.821Z,7.93
2022-08-16T09:43:37.778Z,7.90
2022-08-16T09:46:48.192Z,8.00
2022-08-16T09:48:56.411Z,7.72
2022-08-16T09:51:26.379Z,7.50
2022-08-16T09:54:04.593Z,8.00
2022-08-16T09:56:35.423Z,8.23
2022-08-16T09:59:07.899Z,9.07
2022-08-16T10:01:45.948Z,8.80
2022-08-16T10:04:31.538Z,8.02
2022-08-16T10:07:14.854Z,8.25
2022-08-16T10:09:55.078Z,8.65
2022-08-16T10:12:56.044Z,8.57
2022-08-16T10:15:26.041Z,7.85
2022-08-16T10:18:00.413Z,7.60
2022-08-16T10:20:31.465Z,7.80
2022-08-16T10:23:05.566Z,8.85
2022-08-16T10:27:16.892Z,8.25
2022-08-16T10:28:28.588Z,12.73
2022-08-16T10:30:59.633Z,8.73
2022-08-16T10:33:29.328Z,9.07
2022-08-16T10:36:03.126Z,8.30
2022-08-16T10:38:33.231Z,8.85
2022-08-16T10:41:07.103Z,8.65
2022-08-16T10:43:36.486Z,8.90
2022-08-16T10:46:39.959Z,8.98
2022-08-16T10:48:55.105Z,9.02
2022-08-16T10:51:27.811Z,8.50
2022-08-16T10:54:02.747Z,9.60
2022-08-16T10:56:52.771Z,8.63
2022-08-16T10:59:45.794Z,8.57
2022-08-16T11:02:59.078Z,8.35
2022-08-16T11:05:06.484Z,8.45
2022-08-16T11:07:52.059Z,7.82
2022-08-16T11:16:26.995Z,7.88
2022-08-16T11:19:05.232Z,7.95
2022-08-16T11:21:37.406Z,8.90
2022-08-16T11:24:05.396Z,8.23
2022-08-16T11:29:39.782Z,8.10
2022-08-16T11:32:07.614Z,8.30
2022-08-16T11:35:05.836Z,8.95
2022-08-16T11:37:27.609Z,8.40
2022-08-16T11:40:12.863Z,9.20
2022-08-16T11:42:41.662Z,9.43
2022-08-16T11:45:11.167Z,8.38
2022-08-16T11:47:39.372Z,9.43
2022-08-16T11:50:09.136Z,9.10
2022-08-16T11:52:37.629Z,9.25
2022-08-16T11:55:09.255Z,9.45
2022-08-16T11:57:37.252Z,9.68
2022-08-16T12:00:33.931Z,9.00
2022-08-16T12:02:59.938Z,9.80
2022-08-16T12:05:28.374Z,9.95
2022-08-16T12:07:55.959Z,10.10
2022-08-16T12:10:29.432Z,9.55
2022-08-16T12:12:57.875Z,9.32
2022-08-16T12:15:26.574Z,9.35
2022-08-16T12:17:57.874Z,8.45
2022-08-16T12:20:30.792Z,8.60
2022-08-16T12:22:59.940Z,8.40
2022-08-16T12:25:29.819Z,7.80
2022-08-16T12:27:57.641Z,8.68
2022-08-16T12:30:37.729Z,8.57
2022-08-16T12:33:09.099Z,8.45
2022-08-16T12:35:39.057Z,8.75
2022-08-16T12:38:38.004Z,8.73
2022-08-16T12:40:56.969Z,8.10
2022-08-16T12:43:25.529Z,8.30
2022-08-16T12:45:56.020Z,7.85
2022-08-16T12:48:48.796Z,9.95
2022-08-16T12:51:23.964Z,10.13
2022-08-16T12:53:55.737Z,9.75
2022-08-16T12:56:29.956Z,10.35
2022-08-16T12:59:01.863Z,9.82
2022-08-16T13:01:33.451Z,11.63
2022-08-16T13:04:20.151Z,10.75
2022-08-16T13:06:50.073Z,10.45
2022-08-16T13:09:21.486Z,10.00
2022-08-16T13:12:05.577Z,9.73
2022-08-16T13:14:39.888Z,10.20
2022-08-16T13:17:19.800Z,10.38
2022-08-16T13:22:49.902Z,9.55
2022-08-16T13:25:21.997Z,8.43
2022-08-16T13:28:03.243Z,8.13
2022-08-16T13:30:41.699Z,8.10
2022-08-16T13:33:14.049Z,7.63
2022-08-16T13:35:57.691Z,6.97
2022-08-16T13:38:27.460Z,7.47
2022-08-16T13:40:58.388Z,7.25
2022-08-16T13:43:27.439Z,7.13
2022-08-16T13:45:57.946Z,6.53
2022-08-16T13:48:43.250Z,6.50
2022-08-16T13:51:18.890Z,6.60
2022-08-16T13:54:02.562Z,6.45
2022-08-16T13:56:37.101Z,5.50
2022-08-16T13:59:19.667Z,4.95
2022-08-16T14:01:55.099Z,4.80
2022-08-16T14:04:34.038Z,5.40
2022-08-16T14:07:05.957Z,5.50
2022-08-16T14:09:36.287Z,6.40
2022-08-16T14:12:09.726Z,5.43
2022-08-16T14:14:37.583Z,5.75
2022-08-16T14:17:05.424Z,4.80
2022-08-16T14:19:36.871Z,4.82
2022-08-16T14:22:31.733Z,5.50
2022-08-16T14:25:07.259Z,5.55
2022-08-16T14:27:41.929Z,5.97
2022-08-16T14:30:15.573Z,6.05
2022-08-16T14:32:46.772Z,6.22
2022-08-16T14:35:36.748Z,5.72
2022-08-16T14:38:18.489Z,5.57
2022-08-16T14:40:52.853Z,5.28
2022-08-16T14:43:23.994Z,6.10
2022-08-16T14:45:51.355Z,5.57
2022-08-16T14:48:26.416Z,5.43
2022-08-16T14:50:55.231Z,5.47
2022-08-16T14:53:23.758Z,6.60
2022-08-16T14:55:50.890Z,6.57
2022-08-16T14:58:20.292Z,6.65
2022-08-16T15:01:02.820Z,6.40
2022-08-16T15:03:30.261Z,8.18
2022-08-16T15:06:01.889Z,7.20
2022-08-16T15:08:36.162Z,7.13
2022-08-16T15:11:06.215Z,8.18
2022-08-16T15:13:35.500Z,8.60
2022-08-16T15:16:03.808Z,8.38
2022-08-16T15:18:33.446Z,8.18
2022-08-16T15:21:02.392Z,7.82
2022-08-16T15:23:33.624Z,7.25
2022-08-16T15:26:03.504Z,8.10
2022-08-16T15:28:33.615Z,7.68
2022-08-16T15:31:03.695Z,7.97
2022-08-16T15:33:43.590Z,8.30
2022-08-16T15:36:19.124Z,7.60
2022-08-16T15:39:02.200Z,6.65
2022-08-16T15:41:43.409Z,8.05
2022-08-16T15:44:14.949Z,7.18
2022-08-16T15:46:55.262Z,7.85
2022-08-16T15:49:37.142Z,7.05
2022-08-16T15:52:30.725Z,7.35
2022-08-16T15:55:13.023Z,7.97
2022-08-16T15:57:51.577Z,8.30
2022-08-16T16:00:20.755Z,7.95
2022-08-16T16:02:49.540Z,9.05
2022-08-16T16:05:19.538Z,8.77
2022-08-16T16:07:56.935Z,7.97
2022-08-16T16:10:34.545Z,9.38
2022-08-16T16:13:03.845Z,8.60
2022-08-16T16:15:41.053Z,8.93
2022-08-16T16:18:12.714Z,9.75
2022-08-16T16:20:46.652Z,9.77
2022-08-16T16:23:26.912Z,8.98
2022-08-16T16:25:58.507Z,9.10
2022-08-16T16:29:06.701Z,8.90
2022-08-16T16:31:18.914Z,9.63
2022-08-16T16:33:52.036Z,8.77
2022-08-16T16:36:28.169Z,8.38
2022-08-16T16:38:56.705Z,9.45
2022-08-16T16:41:27.791Z,10.50
2022-08-16T16:43:56.499Z,9.60
2022-08-16T16:46:42.328Z,8.88
2022-08-16T16:49:12.631Z,9.68
2022-08-16T16:51:44.914Z,9.55
2022-08-16T16:54:27.843Z,9.38
2022-08-16T16:56:56.636Z,10.10
2022-08-16T16:59:25.567Z,9.10
2022-08-16T17:01:57.715Z,9.60
2022-08-16T17:04:43.400Z,8.77
2022-08-16T17:07:12.181Z,10.13
2022-08-16T17:09:41.462Z,10.05
2022-08-16T17:12:14.577Z,9.00
2022-08-16T17:14:54.008Z,9.30
2022-08-16T17:17:22.258Z,10.40
2022-08-16T17:19:49.966Z,9.43
2022-08-16T17:22:21.542Z,10.20
2022-08-16T17:24:52.279Z,10.40
2022-08-16T17:27:32.516Z,9.95
2022-08-16T17:30:16.688Z,9.90
2022-08-16T17:32:54.454Z,10.10
2022-08-16T17:35:54.952Z,11.77
2022-08-16T17:38:39.150Z,12.40
2022-08-16T17:41:13.288Z,12.88
2022-08-16T17:43:44.296Z,10.35
2022-08-16T17:46:51.338Z,10.32
2022-08-16T17:49:01.649Z,10.27
2022-08-16T17:51:28.739Z,11.07
2022-08-16T17:53:56.670Z,9.48
2022-08-16T17:56:23.800Z,8.70
2022-08-16T17:58:50.803Z,8.98
2022-08-16T18:01:25.383Z,8.85
2022-08-16T18:04:07.893Z,9.27
2022-08-16T18:06:36.771Z,8.63
2022-08-16T18:09:04.358Z,9.15
2022-08-16T18:11:41.193Z,8.25
2022-08-16T18:14:10.468Z,8.35
2022-08-16T18:16:38.237Z,9.00
2022-08-16T18:19:05.188Z,8.18
2022-08-16T18:21:51.018Z,8.57
2022-08-16T18:24:19.012Z,8.65
2022-08-16T18:26:46.451Z,8.90
2022-08-16T18:29:13.789Z,8.63
2022-08-16T18:31:40.901Z,8.57
2022-08-16T18:34:07.908Z,9.55
2022-08-16T18:36:35.474Z,8.38
2022-08-16T18:39:02.999Z,8.27
2022-08-16T18:41:30.571Z,8.77
2022-08-16T18:44:25.266Z,8.73
2022-08-16T18:46:50.688Z,8.70
2022-08-16T18:49:19.125Z,8.90
2022-08-16T18:51:46.282Z,9.35
2022-08-16T18:54:18.127Z,9.95
2022-08-16T18:56:54.211Z,9.70
2022-08-16T18:59:27.310Z,9.65
2022-08-16T19:01:56.906Z,10.77
2022-08-16T19:04:47.446Z,10.43
2022-08-16T19:07:15.390Z,9.85
2022-08-16T19:09:42.365Z,9.57
2022-08-16T19:12:09.569Z,10.27
2022-08-16T19:14:36.549Z,9.80
2022-08-16T19:17:04.061Z,10.35
2022-08-16T19:19:31.058Z,10.23
2022-08-16T19:21:58.290Z,10.80
2022-08-16T19:24:29.222Z,10.80
2022-08-16T19:26:57.078Z,9.85
2022-08-16T19:29:24.532Z,9.52
2022-08-16T19:31:51.510Z,10.18
2022-08-16T19:34:18.536Z,10.35
2022-08-16T19:36:45.532Z,10.70
2022-08-16T19:39:15.349Z,10.25
2022-08-16T19:41:53.732Z,10.65
2022-08-16T19:44:22.578Z,11.75
2022-08-16T19:46:50.408Z,10.63
2022-08-16T19:49:17.487Z,10.93
2022-08-16T19:51:46.457Z,10.93
2022-08-16T19:54:13.669Z,12.68
2022-08-16T19:56:40.653Z,14.15
2022-08-16T19:59:39.221Z,12.02
2022-08-16T20:01:54.666Z,11.25
2022-08-16T20:04:23.433Z,10.68
2022-08-16T20:06:52.489Z,10.32
2022-08-16T20:09:21.580Z,11.00
2022-08-16T20:11:50.672Z,11.02
2022-08-16T20:14:25.234Z,11.05
2022-08-16T20:16:57.957Z,10.75
2022-08-16T20:19:27.902Z,11.13
2022-08-16T20:21:56.569Z,11.10
2022-08-16T20:24:40.440Z,10.50
2022-08-16T20:27:12.452Z,11.93
2022-08-16T20:29:41.905Z,12.52
2022-08-16T20:32:14.126Z,12.52
2022-08-16T20:34:41.666Z,11.55
2022-08-16T20:37:12.806Z,11.65
2022-08-16T20:39:44.359Z,13.35
2022-08-16T20:42:25.633Z,11.77
2022-08-16T20:44:54.863Z,13.60
2022-08-16T20:47:24.070Z,14.07
2022-08-16T20:49:55.659Z,12.65
2022-08-16T20:52:25.232Z,12.68
2022-08-16T20:54:54.502Z,12.70
2022-08-16T20:57:22.072Z,13.73
2022-08-16T20:59:50.311Z,13.50
2022-08-16T21:02:27.016Z,13.20
2022-08-16T21:04:55.174Z,12.80
2022-08-16T21:07:22.471Z,12.32
2022-08-16T21:09:49.514Z,11.90
2022-08-16T21:12:18.105Z,12.35
2022-08-16T21:14:45.538Z,11.82
2022-08-16T21:17:13.578Z,12.88
2022-08-16T21:19:41.085Z,12.70
2022-08-16T21:22:22.261Z,13.48
2022-08-16T21:24:53.982Z,12.45
2022-08-16T21:27:21.509Z,12.88
2022-08-16T21:29:52.315Z,12.82
2022-08-16T21:32:35.836Z,13.07
2022-08-16T21:35:15.938Z,12.15
2022-08-16T21:37:44.006Z,12.23
2022-08-16T21:40:34.520Z,12.25
2022-08-16T21:43:17.513Z,12.27
2022-08-16T21:45:45.977Z,13.27
2022-08-16T21:48:14.129Z,13.18
2022-08-16T21:50:43.183Z,12.00
2022-08-16T21:53:17.577Z,12.40
2022-08-16T21:55:47.261Z,11.57
2022-08-16T21:58:15.227Z,12.48
2022-08-16T22:00:42.690Z,11.52
2022-08-16T22:03:12.779Z,12.27
2022-08-16T22:05:44.107Z,12.27
2022-08-16T22:08:12.194Z,13.15
2022-08-16T22:11:06.603Z,11.15
2022-08-16T22:13:31.120Z,12.85
2022-08-16T22:15:58.177Z,13.25
2022-08-16T22:18:25.257Z,11.82
2022-08-16T22:20:53.959Z,13.23
2022-08-16T22:23:26.461Z,13.30
2022-08-16T22:25:55.325Z,13.38
2022-08-16T22:28:23.479Z,12.60
2022-08-16T22:30:50.825Z,12.27
2022-08-16T22:33:25.767Z,12.10
2022-08-16T22:36:00.332Z,11.88
2022-08-16T22:38:54.577Z,13.55
2022-08-16T22:41:16.201Z,13.95
2022-08-16T22:43:45.880Z,12.52
2022-08-16T22:46:12.906Z,12.95
2022-08-16T22:48:42.513Z,12.70
2022-08-16T22:51:10.156Z,12.93
2022-08-16T22:53:37.715Z,13.75
2022-08-16T22:56:05.288Z,13.00
2022-08-16T22:58:37.085Z,12.50
2022-08-16T23:01:07.514Z,12.88
2022-08-16T23:03:36.076Z,13.77
2022-08-16T23:06:04.681Z,12.95
2022-08-16T23:08:39.943Z,15.30
2022-08-16T23:11:14.217Z,15.63
2022-08-16T23:13:51.487Z,13.85
2022-08-16T23:16:33.432Z,15.25
2022-08-16T23:19:12.370Z,14.85
2022-08-16T23:21:44.457Z,14.60
2022-08-16T23:24:12.816Z,15.25
2022-08-16T23:26:47.670Z,15.18
2022-08-16T23:29:25.395Z,14.48
2022-08-16T23:31:58.090Z,15.35
2022-08-16T23:34:27.199Z,16.00
2022-08-16T23:36:54.373Z,15.00
2022-08-16T23:39:22.204Z,15.75
2022-08-16T23:41:49.613Z,15.55
2022-08-16T23:44:57.429Z,17.20
2022-08-16T23:47:06.076Z,16.58
2022-08-16T23:49:59.359Z,15.45
2022-08-16T23:52:42.105Z,15.73
2022-08-16T23:55:07.932Z,16.90
2022-08-16T23:57:34.879Z,16.25
